Time;durP1;ratioP1;P1;durP2;ratioP2;P2;SDS_P1;SDS_P2;PMS_P1;PMS_P2;Temp;Humidity;BMP_temperature;BMP_pressure;BME280_temperature;BME280_humidity;BME280_pressure;Samples;Min_cycle;Max_cycle;Signal;HPM_P1;HPM_P2
2022/09/24 00:01:08;;;;;;;51.83;40.15;;;13.70;99.90;;;;;;4983212;28;20081;-76
2022/09/24 00:03:34;;;;;;;51.33;39.08;;;13.70;99.90;;;;;;4983153;28;20050;-75
2022/09/24 00:06:04;;;;;;;50.47;39.70;;;13.60;99.90;;;;;;4987948;28;20046;-77
2022/09/24 00:08:30;;;;;;;49.08;41.72;;;13.60;99.90;;;;;;4983473;28;20093;-77
2022/09/24 00:10:59;;;;;;;49.33;39.58;;;13.70;99.90;;;;;;4985204;28;20096;-76
2022/09/24 00:13:25;;;;;;;47.83;38.55;;;13.70;99.90;;;;;;4972882;28;20070;-75
2022/09/24 00:15:50;;;;;;;50.75;41.13;;;13.70;99.90;;;;;;4984641;28;20084;-76
2022/09/24 00:18:17;;;;;;;57.67;42.80;;;13.70;99.90;;;;;;4986647;28;20034;-77
2022/09/24 00:20:43;;;;;;;56.97;44.15;;;13.70;99.90;;;;;;4967855;28;20057;-77
2022/09/24 00:23:10;;;;;;;53.17;42.38;;;13.70;99.90;;;;;;4987707;28;20132;-76
2022/09/24 00:28:28;;;;;;;52.40;42.47;;;13.70;99.90;;;;;;4983911;28;20041;-76
2022/09/24 00:30:54;;;;;;;56.40;43.63;;;13.60;99.90;;;;;;4988109;28;20034;-77
2022/09/24 00:33:20;;;;;;;56.47;43.55;;;13.60;99.90;;;;;;4988556;28;20173;-77
2022/09/24 00:35:45;;;;;;;55.60;44.00;;;13.60;99.90;;;;;;4986817;28;20129;-76
2022/09/24 00:38:11;;;;;;;54.05;42.40;;;13.60;99.90;;;;;;4987257;28;20038;-77
2022/09/24 00:40:38;;;;;;;55.05;43.33;;;13.60;99.90;;;;;;4984541;28;20031;-77
2022/09/24 00:43:24;;;;;;;54.78;43.90;;;13.60;99.90;;;;;;4968596;28;20039;-75
2022/09/24 00:45:52;;;;;;;55.08;42.97;;;13.60;99.90;;;;;;4978519;28;20046;-76
2022/09/24 00:48:18;;;;;;;58.22;43.50;;;13.60;99.90;;;;;;4984191;28;20438;-75
2022/09/24 00:50:44;;;;;;;56.88;43.58;;;13.60;99.90;;;;;;4980627;28;20082;-77
2022/09/24 00:53:17;;;;;;;56.97;44.90;;;13.60;99.90;;;;;;4981666;28;20085;-77
2022/09/24 00:55:46;;;;;;;56.85;45.05;;;13.60;99.90;;;;;;4983921;28;20133;-77
2022/09/24 00:58:13;;;;;;;59.83;46.03;;;13.60;99.90;;;;;;4983198;28;20058;-77
2022/09/24 01:00:43;;;;;;;57.80;43.42;;;13.60;99.90;;;;;;4983495;28;20046;-77
2022/09/24 01:03:15;;;;;;;59.30;46.22;;;13.60;99.90;;;;;;4983702;28;20057;-75
2022/09/24 01:05:41;;;;;;;62.47;45.38;;;13.60;99.90;;;;;;4984785;28;20133;-75
2022/09/24 01:08:11;;;;;;;59.60;46.60;;;13.60;99.90;;;;;;4985006;28;20578;-77
2022/09/24 01:10:50;;;;;;;64.18;46.95;;;13.60;99.90;;;;;;4985775;28;20077;-75
2022/09/24 01:13:37;;;;;;;64.20;47.47;;;13.60;99.90;;;;;;4981279;28;20070;-77
2022/09/24 01:16:24;;;;;;;63.22;46.85;;;13.60;99.90;;;;;;4968346;28;20462;-77
2022/09/24 01:19:08;;;;;;;64.40;47.42;;;13.60;99.90;;;;;;4981674;28;20050;-77
2022/09/24 01:21:49;;;;;;;60.25;46.75;;;13.60;99.90;;;;;;4983331;28;20100;-77
2022/09/24 01:24:40;;;;;;;63.25;46.65;;;13.60;99.90;;;;;;4983485;28;20411;-77
2022/09/24 01:27:27;;;;;;;64.50;45.63;;;13.60;99.90;;;;;;4985224;28;20834;-76
2022/09/24 01:30:06;;;;;;;65.53;48.60;;;13.60;99.90;;;;;;4983651;28;20042;-76
2022/09/24 01:32:54;;;;;;;65.07;48.40;;;13.60;99.90;;;;;;4969295;28;20133;-77
2022/09/24 01:35:37;;;;;;;69.18;47.90;;;13.60;99.90;;;;;;4989773;28;20062;-75
2022/09/24 01:38:08;;;;;;;67.45;48.95;;;13.60;99.90;;;;;;4983534;28;20042;-77
2022/09/24 01:40:35;;;;;;;66.50;49.30;;;13.70;99.90;;;;;;5003415;28;20045;-77
2022/09/24 01:43:03;;;;;;;64.47;48.15;;;13.70;99.90;;;;;;5004672;28;20141;-76
2022/09/24 01:45:30;;;;;;;68.15;49.55;;;13.70;99.90;;;;;;4983834;28;20042;-76
2022/09/24 01:47:59;;;;;;;69.82;48.03;;;13.60;99.90;;;;;;4982657;28;20050;-77
2022/09/24 01:50:28;;;;;;;72.43;50.47;;;13.60;99.90;;;;;;4982503;28;20436;-76
2022/09/24 01:53:07;;;;;;;72.97;51.03;;;13.60;99.90;;;;;;4983137;28;20050;-76
2022/09/24 01:55:37;;;;;;;66.15;47.85;;;13.60;99.90;;;;;;4981590;28;20048;-77
2022/09/24 01:58:10;;;;;;;69.05;49.38;;;13.60;99.90;;;;;;4980721;28;20050;-75
2022/09/24 02:00:38;;;;;;;;;;;13.60;99.90;;;;;;4986111;28;20141;-75
2022/09/24 02:03:09;;;;;;;67.35;48.75;;;13.60;99.90;;;;;;4982679;28;19918;-78
2022/09/24 02:05:50;;;;;;;66.38;47.58;;;13.60;99.90;;;;;;4986619;28;20038;-75
2022/09/24 02:08:19;;;;;;;71.25;48.90;;;13.60;99.90;;;;;;4965573;28;20049;-77
2022/09/24 02:11:07;;;;;;;61.13;46.38;;;13.60;99.90;;;;;;4968416;28;22240;-77
2022/09/24 02:13:47;;;;;;;66.63;47.67;;;13.50;99.90;;;;;;4969840;28;20039;-75
2022/09/24 02:16:15;;;;;;;72.18;48.78;;;13.50;99.90;;;;;;4984275;28;20061;-77
2022/09/24 02:18:46;;;;;;;67.40;47.42;;;13.50;99.90;;;;;;4986578;28;20046;-78
2022/09/24 02:21:15;;;;;;;64.28;47.75;;;13.50;99.90;;;;;;4980800;28;20125;-77
2022/09/24 02:23:54;;;;;;;82.85;48.72;;;13.40;99.90;;;;;;4982712;28;20046;-75
2022/09/24 02:26:20;;;;;;;68.85;49.47;;;13.40;99.90;;;;;;4984092;28;20046;-77
2022/09/24 02:28:45;;;;;;;70.00;48.72;;;13.40;99.90;;;;;;4985329;28;20057;-77
2022/09/24 02:31:15;;;;;;;75.32;49.20;;;13.40;99.90;;;;;;4984421;28;20046;-77
2022/09/24 02:36:29;;;;;;;67.38;48.83;;;13.40;99.90;;;;;;4983857;28;20125;-75
2022/09/24 02:38:54;;;;;;;71.25;48.85;;;13.40;99.90;;;;;;4983663;28;20503;-76
2022/09/24 02:41:22;;;;;;;76.68;51.05;;;13.40;99.90;;;;;;4982735;28;20038;-75
2022/09/24 02:43:49;;;;;;;68.05;48.33;;;13.40;99.90;;;;;;4983916;28;20529;-77
2022/09/24 02:46:14;;;;;;;76.78;51.13;;;13.30;99.90;;;;;;4984023;28;20053;-76
2022/09/24 02:48:40;;;;;;;71.75;49.95;;;13.40;99.90;;;;;;4985182;28;20046;-75
2022/09/24 02:51:07;;;;;;;68.00;48.58;;;13.40;99.90;;;;;;4987620;28;20109;-76
2022/09/24 02:53:33;;;;;;;75.03;51.25;;;13.40;99.90;;;;;;4985076;28;20042;-77
2022/09/24 02:55:59;;;;;;;78.85;50.78;;;13.40;99.90;;;;;;4981266;28;20054;-77
2022/09/24 02:58:26;;;;;;;76.32;51.20;;;13.30;99.90;;;;;;4969364;28;20069;-76
2022/09/24 03:00:53;;;;;;;74.10;49.65;;;13.40;99.90;;;;;;4984251;28;20042;-77
2022/09/24 03:03:20;;;;;;;74.20;50.60;;;13.40;99.90;;;;;;4979555;28;20073;-76
2022/09/24 03:05:45;;;;;;;78.43;51.22;;;13.40;99.90;;;;;;4984324;28;20133;-76
2022/09/24 03:08:11;;;;;;;72.93;52.45;;;13.40;99.90;;;;;;5002163;28;20470;-75
2022/09/24 03:10:38;;;;;;;73.68;51.03;;;13.50;99.90;;;;;;4987076;28;20039;-76
2022/09/24 03:13:03;;;;;;;72.05;50.05;;;13.50;99.90;;;;;;5002003;28;20046;-77
2022/09/24 03:15:29;;;;;;;76.15;51.25;;;13.50;99.90;;;;;;4985136;28;20112;-77
2022/09/24 03:17:55;;;;;;;77.60;50.72;;;13.50;99.90;;;;;;4986631;28;20088;-77
2022/09/24 03:20:21;;;;;;;79.43;50.42;;;13.50;99.90;;;;;;4983272;28;20077;-77
2022/09/24 03:22:50;;;;;;;74.55;49.15;;;13.40;99.90;;;;;;4980442;28;20060;-77
2022/09/24 03:25:17;;;;;;;71.15;48.58;;;13.40;99.90;;;;;;4982029;28;20125;-75
2022/09/24 03:27:42;;;;;;;75.80;51.13;;;13.40;99.90;;;;;;4983469;28;20046;-75
2022/09/24 03:32:53;;;;;;;71.97;49.38;;;13.40;99.90;;;;;;4981195;28;20050;-78
2022/09/24 03:35:19;;;;;;;70.57;49.72;;;13.30;99.90;;;;;;4983120;28;20113;-77
2022/09/24 03:37:45;;;;;;;78.78;49.88;;;13.30;99.90;;;;;;4985851;28;20101;-75
2022/09/24 03:40:10;;;;;;;74.25;50.38;;;13.30;99.90;;;;;;4986598;28;20054;-77
2022/09/24 03:42:36;;;;;;;77.93;51.63;;;13.30;99.90;;;;;;4988642;28;20096;-77
2022/09/24 03:45:02;;;;;;;64.07;48.78;;;13.30;99.90;;;;;;4967170;28;20043;-75
2022/09/24 03:47:30;;;;;;;63.50;46.92;;;13.30;99.90;;;;;;4989013;28;20074;-76
2022/09/24 03:49:56;;;;;;;67.57;47.80;;;13.30;99.90;;;;;;4987951;28;20047;-77
2022/09/24 03:52:23;;;;;;;72.70;49.92;;;13.30;99.90;;;;;;4969485;28;20058;-75
2022/09/24 03:54:49;;;;;;;76.18;50.35;;;13.30;99.90;;;;;;4983492;28;20129;-76
2022/09/24 03:57:14;;;;;;;68.20;47.40;;;13.30;99.90;;;;;;4983867;28;20038;-76
2022/09/24 03:59:41;;;;;;;67.05;47.33;;;13.30;99.90;;;;;;4985617;28;20329;-77
2022/09/24 04:02:07;;;;;;;67.85;49.35;;;13.30;99.90;;;;;;5004397;28;20145;-76
2022/09/24 04:04:33;;;;;;;74.63;48.90;;;13.30;99.90;;;;;;4985367;28;20077;-75
2022/09/24 04:06:58;;;;;;;72.85;49.88;;;13.20;99.90;;;;;;4990622;28;20046;-76
2022/09/24 04:09:24;;;;;;;76.35;51.45;;;13.20;99.90;;;;;;4987761;28;20030;-77
2022/09/24 04:11:51;;;;;;;80.15;52.50;;;13.30;99.90;;;;;;4986347;28;20081;-77
2022/09/24 04:14:17;;;;;;;84.20;52.65;;;13.30;99.90;;;;;;4988187;28;20065;-79
2022/09/24 04:16:44;;;;;;;80.20;50.72;;;13.30;99.90;;;;;;4988471;28;20065;-76
2022/09/24 04:19:14;;;;;;;67.07;48.42;;;13.20;99.90;;;;;;4983134;28;20053;-78
2022/09/24 04:21:44;;;;;;;72.90;49.55;;;13.20;99.90;;;;;;4986380;28;20081;-77
2022/09/24 04:24:10;;;;;;;63.15;46.67;;;13.20;99.90;;;;;;4985411;28;20038;-78
2022/09/24 04:26:36;;;;;;;60.40;46.08;;;13.20;99.90;;;;;;4987529;28;20125;-78
2022/09/24 04:29:02;;;;;;;72.63;50.25;;;13.20;99.90;;;;;;4984212;28;20595;-77
2022/09/24 04:31:27;;;;;;;64.72;47.25;;;13.20;99.90;;;;;;4985887;28;20038;-76
2022/09/24 04:33:53;;;;;;;57.13;43.38;;;13.20;99.90;;;;;;4984280;28;20078;-78
2022/09/24 04:36:19;;;;;;;62.65;46.83;;;13.20;99.90;;;;;;4972239;28;20404;-75
2022/09/24 04:38:45;;;;;;;59.40;46.22;;;13.20;99.90;;;;;;4988809;28;20463;-75
2022/09/24 04:41:11;;;;;;;58.90;45.65;;;13.20;99.90;;;;;;4988757;28;20050;-75
2022/09/24 04:43:37;;;;;;;67.22;48.83;;;13.20;99.90;;;;;;4984691;28;20054;-79
2022/09/24 04:46:03;;;;;;;67.70;48.90;;;13.20;99.90;;;;;;4984105;28;20480;-79
2022/09/24 04:48:29;;;;;;;68.68;49.13;;;13.20;99.90;;;;;;4989555;28;20146;-75
2022/09/24 04:50:55;;;;;;;75.10;50.75;;;13.20;99.90;;;;;;4988509;28;20046;-75
2022/09/24 04:53:21;;;;;;;70.28;50.47;;;13.20;99.90;;;;;;4972066;28;20046;-75
2022/09/24 04:55:47;;;;;;;81.18;51.45;;;13.20;99.90;;;;;;4968684;28;20574;-79
2022/09/24 04:58:13;;;;;;;71.55;50.05;;;13.20;99.90;;;;;;4985418;28;20176;-75
2022/09/24 05:00:39;;;;;;;78.32;50.88;;;13.20;99.90;;;;;;4983621;28;20046;-77
2022/09/24 05:03:05;;;;;;;68.00;47.30;;;13.20;99.90;;;;;;4983222;28;20131;-77
2022/09/24 05:05:31;;;;;;;61.97;47.70;;;13.20;99.90;;;;;;4963943;28;20046;-77
2022/09/24 05:07:58;;;;;;;64.53;46.33;;;13.20;99.90;;;;;;4967823;28;20042;-76
2022/09/24 05:10:24;;;;;;;69.57;48.90;;;13.20;99.90;;;;;;4984271;28;20042;-77
2022/09/24 05:12:51;;;;;;;68.05;47.45;;;13.20;99.90;;;;;;4983455;28;20046;-76
2022/09/24 05:15:18;;;;;;;69.65;49.60;;;13.10;99.90;;;;;;4986116;28;20133;-76
2022/09/24 05:17:44;;;;;;;68.32;47.75;;;13.20;99.90;;;;;;4986029;28;20043;-77
2022/09/24 05:20:10;;;;;;;73.40;50.47;;;13.20;99.90;;;;;;4966565;28;20051;-77
2022/09/24 05:22:40;;;;;;;70.00;49.78;;;13.20;99.90;;;;;;4984816;28;20108;-77
2022/09/24 05:25:06;;;;;;;75.25;51.03;;;13.20;99.90;;;;;;4984052;28;21840;-74
2022/09/24 05:27:32;;;;;;;72.43;51.97;;;13.20;99.90;;;;;;4983897;28;20042;-77
2022/09/24 05:29:59;;;;;;;75.35;50.53;;;13.20;99.90;;;;;;5000094;28;20045;-75
2022/09/24 05:32:25;;;;;;;77.05;52.53;;;13.10;99.90;;;;;;4988120;28;20034;-78
2022/09/24 05:34:51;;;;;;;79.05;52.78;;;13.10;99.90;;;;;;4985999;28;20058;-75
2022/09/24 05:37:17;;;;;;;93.45;55.28;;;13.10;99.90;;;;;;4986997;28;20046;-76
2022/09/24 05:39:42;;;;;;;82.45;54.88;;;13.20;99.90;;;;;;4986805;28;20081;-75
2022/09/24 05:42:10;;;;;;;72.90;51.78;;;13.20;99.90;;;;;;4987412;28;20073;-78
2022/09/24 05:44:36;;;;;;;70.10;50.40;;;13.20;99.90;;;;;;4967883;28;20034;-76
2022/09/24 05:47:02;;;;;;;76.65;54.83;;;13.20;99.90;;;;;;4987236;28;20073;-77
2022/09/24 05:49:27;;;;;;;83.18;53.78;;;13.20;99.90;;;;;;4968632;28;20069;-76
2022/09/24 05:51:53;;;;;;;85.00;53.67;;;13.20;99.90;;;;;;4985655;28;20049;-77
2022/09/24 05:54:18;;;;;;;88.18;55.58;;;13.30;99.90;;;;;;4984564;28;20061;-77
2022/09/24 05:56:44;;;;;;;91.30;56.97;;;13.30;99.90;;;;;;4983898;28;20039;-76
2022/09/24 05:59:11;;;;;;;91.03;57.92;;;13.30;99.90;;;;;;4988198;28;20116;-77
2022/09/24 06:01:36;;;;;;;84.47;54.08;;;13.40;99.90;;;;;;4987482;28;20104;-78
2022/09/24 06:04:02;;;;;;;86.28;56.42;;;13.40;99.90;;;;;;4984648;28;20506;-77
2022/09/24 06:06:28;;;;;;;79.43;52.30;;;13.40;99.90;;;;;;4971050;28;20061;-76
2022/09/24 06:08:54;;;;;;;77.90;53.10;;;13.40;99.90;;;;;;4985823;28;20042;-77
2022/09/24 06:11:21;;;;;;;82.93;53.95;;;13.40;99.90;;;;;;5000979;28;20140;-78
2022/09/24 06:13:47;;;;;;;77.15;51.80;;;13.40;99.90;;;;;;4984365;28;20077;-76
2022/09/24 06:16:12;;;;;;;82.10;54.03;;;13.40;99.90;;;;;;4984646;28;20058;-76
2022/09/24 06:18:40;;;;;;;78.53;52.80;;;13.40;99.90;;;;;;4964104;28;20073;-75
2022/09/24 06:21:09;;;;;;;80.95;52.95;;;13.50;99.90;;;;;;4977667;28;20050;-74
2022/09/24 06:23:36;;;;;;;74.13;50.58;;;13.50;99.90;;;;;;4980641;28;20116;-75
2022/09/24 06:26:03;;;;;;;71.00;50.58;;;13.50;99.90;;;;;;4981660;28;20100;-76
2022/09/24 06:28:29;;;;;;;76.63;52.20;;;13.50;99.90;;;;;;4981636;28;20038;-77
2022/09/24 06:30:54;;;;;;;75.03;50.80;;;13.50;99.90;;;;;;4981258;28;20368;-75
2022/09/24 06:33:20;;;;;;;74.28;51.60;;;13.50;99.90;;;;;;4967859;28;20743;-74
2022/09/24 06:35:47;;;;;;;69.22;49.05;;;13.50;99.90;;;;;;4975997;28;20046;-75
2022/09/24 06:38:15;;;;;;;63.28;46.60;;;13.50;99.90;;;;;;4981452;28;20065;-77
2022/09/24 06:40:49;;;;;;;85.60;53.00;;;13.60;99.90;;;;;;4963024;28;20133;-75
2022/09/24 06:43:19;;;;;;;74.20;50.80;;;13.60;99.90;;;;;;5002950;28;20053;-75
2022/09/24 06:45:45;;;;;;;93.15;54.92;;;13.60;99.90;;;;;;4983166;28;20129;-76
2022/09/24 06:48:14;;;;;;;73.13;50.38;;;13.60;99.90;;;;;;4984242;28;20097;-75
2022/09/24 06:50:42;;;;;;;79.55;51.00;;;13.60;99.90;;;;;;4964682;28;20042;-74
2022/09/24 06:53:09;;;;;;;107.78;54.25;;;13.60;99.90;;;;;;4982555;28;20085;-75
2022/09/24 06:55:37;;;;;;;85.57;52.20;;;13.60;99.90;;;;;;4975906;28;20046;-74
2022/09/24 06:58:10;;;;;;;81.78;48.83;;;13.60;99.90;;;;;;4982783;28;20053;-76
2022/09/24 07:00:37;;;;;;;71.38;49.40;;;13.60;99.90;;;;;;4985766;28;20145;-75
2022/09/24 07:03:03;;;;;;;73.57;50.38;;;13.60;99.90;;;;;;4983328;28;20042;-75
2022/09/24 07:05:29;;;;;;;78.28;50.80;;;13.70;99.90;;;;;;4982261;28;20038;-79
2022/09/24 07:07:55;;;;;;;63.58;45.38;;;13.70;99.90;;;;;;4980931;28;20284;-75
2022/09/24 07:10:23;;;;;;;61.00;40.90;;;13.70;99.90;;;;;;4983047;28;20049;-75
2022/09/24 07:12:48;;;;;;;53.97;35.25;;;13.70;99.90;;;;;;4985271;28;20044;-76
2022/09/24 07:15:14;;;;;;;36.33;31.05;;;13.70;99.90;;;;;;4980729;28;20050;-74
2022/09/24 07:17:40;;;;;;;44.47;31.67;;;13.60;99.90;;;;;;4976850;28;20034;-76
2022/09/24 07:20:06;;;;;;;32.30;24.73;;;13.70;99.90;;;;;;4978649;28;20076;-75
2022/09/24 07:22:36;;;;;;;31.30;25.23;;;13.70;99.90;;;;;;4964793;28;20089;-73
2022/09/24 07:25:02;;;;;;;34.38;27.13;;;13.60;99.90;;;;;;4982429;28;20129;-74
2022/09/24 07:27:27;;;;;;;30.77;26.17;;;13.60;99.90;;;;;;4979669;28;20189;-76
2022/09/24 07:29:53;;;;;;;39.10;27.95;;;13.70;99.90;;;;;;4983562;28;20042;-75
2022/09/24 07:32:19;;;;;;;32.00;25.05;;;13.60;99.90;;;;;;4982374;28;20057;-77
2022/09/24 07:34:45;;;;;;;27.75;23.00;;;13.70;99.90;;;;;;4977929;28;20047;-76
2022/09/24 07:37:10;;;;;;;28.27;22.80;;;13.80;99.90;;;;;;4978594;28;20080;-76
2022/09/24 07:39:37;;;;;;;29.17;23.45;;;13.80;99.90;;;;;;4979479;28;20062;-75
2022/09/24 07:42:04;;;;;;;27.33;22.33;;;13.90;99.90;;;;;;4982152;28;20054;-76
2022/09/24 07:44:30;;;;;;;24.08;18.67;;;13.80;99.90;;;;;;4980768;28;20046;-77
2022/09/24 07:46:56;;;;;;;28.75;20.58;;;13.90;99.90;;;;;;4983969;28;20057;-76
2022/09/24 07:49:22;;;;;;;25.58;20.95;;;13.90;99.90;;;;;;4963305;28;20046;-75
2022/09/24 07:51:49;;;;;;;24.98;18.60;;;14.00;99.90;;;;;;4990313;28;20042;-76
2022/09/24 07:54:15;;;;;;;21.98;17.42;;;14.00;99.90;;;;;;4981697;28;20118;-75
2022/09/24 07:56:41;;;;;;;22.70;17.27;;;14.10;99.90;;;;;;4974966;28;20112;-76
2022/09/24 07:59:10;;;;;;;22.83;15.65;;;14.10;99.90;;;;;;4989246;28;20499;-75
2022/09/24 08:01:36;;;;;;;25.52;18.05;;;14.20;99.90;;;;;;4983968;28;20434;-76
2022/09/24 08:04:03;;;;;;;21.70;16.42;;;14.20;99.90;;;;;;4986133;28;20439;-76
2022/09/24 08:06:32;;;;;;;22.80;17.33;;;14.30;99.90;;;;;;4988312;28;20072;-76
2022/09/24 08:08:58;;;;;;;22.05;17.13;;;14.30;99.90;;;;;;4982366;28;20507;-76
2022/09/24 08:11:24;;;;;;;25.77;17.85;;;14.30;99.90;;;;;;4990786;28;20038;-76
2022/09/24 08:13:50;;;;;;;23.92;16.45;;;14.40;99.90;;;;;;4972739;28;20046;-75
2022/09/24 08:16:16;;;;;;;22.83;16.30;;;14.50;99.90;;;;;;4978834;28;20112;-76
2022/09/24 08:18:42;;;;;;;22.00;15.07;;;14.50;99.90;;;;;;4991759;28;20057;-76
2022/09/24 08:21:10;;;;;;;20.27;13.30;;;14.60;99.90;;;;;;4993639;28;20526;-76
2022/09/24 08:23:37;;;;;;;17.13;12.25;;;14.60;99.90;;;;;;4990533;28;20046;-76
2022/09/24 08:26:03;;;;;;;18.73;12.27;;;14.70;99.90;;;;;;4993608;28;20077;-76
2022/09/24 08:28:29;;;;;;;19.75;11.23;;;14.80;99.90;;;;;;4977390;28;20050;-76
2022/09/24 08:31:03;;;;;;;22.02;10.80;;;14.80;99.90;;;;;;4982957;28;20053;-76
2022/09/24 08:33:31;;;;;;;21.85;10.52;;;14.80;99.90;;;;;;4983596;28;20051;-76
2022/09/24 08:36:01;;;;;;;18.10;10.30;;;14.80;99.90;;;;;;4987771;28;20113;-76
2022/09/24 08:38:26;;;;;;;20.48;10.05;;;14.90;99.90;;;;;;4982664;28;20085;-75
2022/09/24 08:41:06;;;;;;;20.90;9.27;;;14.90;99.90;;;;;;4985904;28;20081;-76
2022/09/24 08:43:38;;;;;;;20.85;8.95;;;14.90;99.90;;;;;;4982368;28;20047;-76
2022/09/24 08:49:20;;;;;;;20.13;8.15;;;14.90;99.90;;;;;;4981680;28;20053;-76
2022/09/24 08:52:14;;;;;;;17.77;7.80;;;14.90;99.90;;;;;;4991373;28;20073;-76
2022/09/24 08:54:43;;;;;;;15.40;6.90;;;14.80;99.90;;;;;;4951114;28;20063;-76
2022/09/24 08:57:14;;;;;;;16.70;7.35;;;14.90;99.90;;;;;;4982116;28;20042;-76
2022/09/24 08:59:46;;;;;;;17.40;6.55;;;14.90;99.90;;;;;;4984366;28;20050;-76
2022/09/24 09:02:35;;;;;;;17.15;6.80;;;14.90;99.90;;;;;;5001253;28;20049;-76
2022/09/24 09:05:26;;;;;;;15.98;5.38;;;14.80;99.90;;;;;;4983262;28;20519;-75
2022/09/24 09:08:01;;;;;;;14.05;3.65;;;14.90;99.90;;;;;;4967430;28;20056;-76
2022/09/24 09:10:34;;;;;;;14.10;2.75;;;14.90;99.90;;;;;;4982574;28;20045;-75
2022/09/24 09:13:18;;;;;;;9.52;2.40;;;15.00;99.90;;;;;;4981082;28;20051;-75
2022/09/24 09:15:59;;;;;;;16.85;2.78;;;14.90;99.90;;;;;;4978190;28;20047;-79
2022/09/24 09:18:40;;;;;;;13.18;2.38;;;14.90;99.90;;;;;;4980267;28;20050;-75
2022/09/24 09:21:13;;;;;;;8.65;1.77;;;14.90;99.90;;;;;;4982702;28;20053;-75
2022/09/24 09:23:48;;;;;;;13.35;2.05;;;15.00;99.90;;;;;;4982068;28;20128;-78
2022/09/24 09:26:17;;;;;;;8.68;2.00;;;14.90;99.90;;;;;;4990586;28;20050;-75
2022/09/24 09:28:43;;;;;;;8.57;1.55;;;14.90;99.90;;;;;;4982799;28;20073;-75
2022/09/24 09:31:18;;;;;;;14.77;2.30;;;15.00;99.90;;;;;;5004939;28;20042;-75
2022/09/24 09:33:59;;;;;;;10.98;2.13;;;15.00;99.90;;;;;;4986745;28;20038;-77
2022/09/24 09:36:52;;;;;;;10.85;1.70;;;14.90;99.90;;;;;;4980528;28;20066;-76
2022/09/24 09:39:43;;;;;;;9.68;1.70;;;15.00;99.90;;;;;;4962070;28;20046;-76
2022/09/24 09:42:47;;;;;;;8.25;1.50;;;15.00;99.90;;;;;;4967619;28;20077;-76
2022/09/24 09:45:28;;;;;;;7.72;1.98;;;15.00;99.90;;;;;;4983914;28;20127;-74
2022/09/24 09:47:56;;;;;;;8.18;1.90;;;15.10;99.90;;;;;;4967529;28;20055;-74
2022/09/24 09:50:38;;;;;;;11.63;1.98;;;15.10;99.90;;;;;;4988695;28;20050;-74
2022/09/24 09:53:04;;;;;;;8.63;1.58;;;15.10;99.90;;;;;;5002653;28;20050;-76
2022/09/24 09:55:39;;;;;;;13.02;2.15;;;15.10;99.90;;;;;;4978285;28;20050;-76
2022/09/24 09:58:14;;;;;;;14.10;2.33;;;15.10;99.90;;;;;;4977367;28;20046;-75
2022/09/24 10:00:40;;;;;;;10.25;2.03;;;15.10;99.90;;;;;;4978401;28;20098;-75
2022/09/24 10:03:20;;;;;;;10.93;1.95;;;15.20;99.90;;;;;;4985664;28;20125;-75
2022/09/24 10:05:55;;;;;;;10.70;2.20;;;15.20;99.90;;;;;;4981565;28;20133;-74
2022/09/24 10:08:22;;;;;;;9.98;1.70;;;15.20;99.90;;;;;;4981115;28;20054;-75
2022/09/24 10:10:59;;;;;;;12.57;2.25;;;15.20;99.90;;;;;;4980051;28;20046;-75
2022/09/24 10:13:26;;;;;;;15.15;2.30;;;15.20;99.90;;;;;;4958024;28;20050;-74
2022/09/24 10:15:56;;;;;;;13.98;2.60;;;15.20;99.90;;;;;;4981124;28;20046;-75
2022/09/24 10:18:28;;;;;;;9.45;1.85;;;15.20;99.90;;;;;;4981241;28;20038;-75
2022/09/24 10:20:55;;;;;;;12.63;2.05;;;15.20;99.90;;;;;;4983615;28;20098;-75
2022/09/24 10:23:30;;;;;;;14.65;2.70;;;15.30;99.90;;;;;;4982709;28;20414;-74
2022/09/24 10:26:01;;;;;;;13.73;2.50;;;15.30;99.90;;;;;;4988659;28;20042;-75
2022/09/24 10:31:16;;;;;;;13.25;2.05;;;15.30;99.90;;;;;;4985652;28;20133;-75
2022/09/24 10:33:45;;;;;;;14.57;2.45;;;15.30;99.90;;;;;;4986378;28;20045;-74
2022/09/24 10:36:13;;;;;;;11.45;2.10;;;15.40;99.90;;;;;;4969784;28;20053;-74
2022/09/24 10:38:39;;;;;;;10.38;2.17;;;15.40;99.90;;;;;;4970548;28;20050;-75
2022/09/24 10:41:26;;;;;;;10.55;2.20;;;15.40;99.90;;;;;;4987615;28;20054;-76
2022/09/24 10:43:53;;;;;;;14.95;2.33;;;15.40;99.90;;;;;;4987259;28;20046;-78
2022/09/24 10:46:39;;;;;;;12.05;2.17;;;15.40;99.90;;;;;;4991512;28;20050;-76
2022/09/24 10:49:34;;;;;;;13.85;2.63;;;15.30;99.90;;;;;;4978952;28;20209;-76
2022/09/24 10:52:25;;;;;;;15.65;2.40;;;15.30;99.90;;;;;;4986799;28;20057;-76
2022/09/24 10:54:59;;;;;;;12.25;2.17;;;15.20;99.90;;;;;;4964399;28;20046;-76
2022/09/24 10:57:58;;;;;;;9.88;1.98;;;15.20;99.90;;;;;;4986049;28;20103;-76
2022/09/24 11:00:48;;;;;;;14.40;2.10;;;15.10;99.90;;;;;;4968374;28;20050;-76
2022/09/24 11:03:41;;;;;;;11.38;1.85;;;15.10;99.90;;;;;;4984930;28;20050;-77
2022/09/24 11:06:23;;;;;;;7.93;1.58;;;15.10;99.90;;;;;;4975959;28;20403;-77
2022/09/24 11:09:30;;;;;;;10.45;1.55;;;15.10;99.90;;;;;;4983638;28;20073;-76
2022/09/24 11:12:29;;;;;;;9.50;2.58;;;15.00;99.90;;;;;;4978508;28;20677;-76
2022/09/24 11:15:24;;;;;;;7.13;2.28;;;15.00;99.90;;;;;;4963279;28;20065;-74
2022/09/24 11:18:28;;;;;;;24.55;16.73;;;15.00;99.90;;;;;;4986415;28;20053;-76
2022/09/24 11:21:13;;;;;;;4.95;1.80;;;15.00;99.90;;;;;;4981487;28;20043;-75
2022/09/24 11:24:11;;;;;;;9.02;2.80;;;15.10;99.90;;;;;;4981532;28;20069;-78
2022/09/24 11:26:39;;;;;;;6.60;1.73;;;15.10;99.90;;;;;;4956192;28;20062;-80
2022/09/24 11:29:10;;;;;;;5.18;1.10;;;15.20;99.90;;;;;;4983952;28;20054;-77
2022/09/24 11:32:00;;;;;;;6.85;1.23;;;15.30;99.90;;;;;;4987057;28;20604;-76
2022/09/24 11:34:51;;;;;;;4.50;1.10;;;15.30;99.90;;;;;;4986869;28;20438;-75
2022/09/24 11:37:25;;;;;;;3.42;0.82;;;15.40;99.90;;;;;;4982135;28;20054;-76
2022/09/24 11:40:12;;;;;;;5.88;1.15;;;15.50;99.90;;;;;;4974497;28;20053;-76
2022/09/24 11:43:00;;;;;;;3.47;1.00;;;15.60;99.90;;;;;;4980276;28;20411;-76
2022/09/24 11:46:12;;;;;;;5.78;1.45;;;15.60;99.90;;;;;;4984112;28;20042;-75
2022/09/24 11:49:08;;;;;;;6.28;1.25;;;15.70;99.90;;;;;;4990335;28;20061;-76
2022/09/24 11:52:26;;;;;;;4.15;1.00;;;15.70;99.90;;;;;;4968960;28;20049;-77
2022/09/24 11:54:59;;;;;;;4.03;1.02;;;15.70;99.90;;;;;;4970988;28;20095;-77
2022/09/24 11:57:29;;;;;;;3.22;1.10;;;15.80;99.90;;;;;;4990568;28;20050;-76
2022/09/24 12:00:06;;;;;;;3.83;1.00;;;15.90;99.90;;;;;;4982456;28;20095;-76
2022/09/24 12:02:40;;;;;;;3.33;1.08;;;15.90;99.90;;;;;;4992046;28;20046;-76
2022/09/24 12:05:19;;;;;;;5.28;1.15;;;15.90;99.90;;;;;;4985924;28;20046;-76
2022/09/24 12:07:54;;;;;;;5.05;1.10;;;15.90;99.90;;;;;;4983710;28;20042;-76
2022/09/24 12:10:42;;;;;;;3.17;0.90;;;15.90;99.90;;;;;;4981666;28;20050;-77
2022/09/24 12:13:19;;;;;;;4.68;0.98;;;15.90;99.90;;;;;;4970122;28;20056;-76
2022/09/24 12:15:59;;;;;;;3.95;1.17;;;15.90;99.90;;;;;;4969562;28;20093;-76
2022/09/24 12:18:39;;;;;;;6.55;1.27;;;16.00;99.90;;;;;;4987698;28;20046;-76
2022/09/24 12:21:09;;;;;;;5.63;1.10;;;16.10;99.90;;;;;;4982603;28;20047;-77
2022/09/24 12:23:41;;;;;;;7.22;1.00;;;16.10;99.90;;;;;;4986597;28;20129;-76
2022/09/24 12:26:09;;;;;;;3.40;1.10;;;16.10;99.90;;;;;;4993000;28;20133;-76
2022/09/24 12:35:20;;;;;;;3.75;1.00;;;16.20;99.90;;;;;;4983161;28;20665;-75
2022/09/24 12:37:54;;;;;;;5.97;1.08;;;16.10;99.90;;;;;;4992963;28;20503;-76
2022/09/24 12:40:41;;;;;;;9.48;5.10;;;16.10;99.90;;;;;;4981928;28;20042;-75
2022/09/24 12:43:27;;;;;;;7.20;2.03;;;16.00;99.90;;;;;;4986695;28;20119;-75
2022/09/24 12:46:00;;;;;;;10.40;1.60;;;16.00;99.90;;;;;;4976373;28;20130;-76
2022/09/24 12:48:28;;;;;;;5.32;1.33;;;16.00;99.90;;;;;;4976591;28;20053;-76
2022/09/24 12:50:58;;;;;;;5.35;1.10;;;15.90;99.90;;;;;;4988706;28;20051;-75
2022/09/24 12:53:26;;;;;;;7.03;1.70;;;15.90;99.90;;;;;;4988643;28;20125;-74
2022/09/24 12:55:58;;;;;;;10.35;5.75;;;15.90;99.90;;;;;;4971202;28;20050;-77
2022/09/24 12:58:38;;;;;;;4.13;1.40;;;15.90;99.90;;;;;;4989117;28;20046;-75
2022/09/24 13:01:26;;;;;;;8.30;4.53;;;15.80;99.90;;;;;;4981048;28;20046;-74
2022/09/24 13:04:24;;;;;;;5.80;2.30;;;15.80;99.90;;;;;;4987130;28;20058;-76
2022/09/24 13:06:51;;;;;;;6.00;1.77;;;15.80;99.90;;;;;;4987914;28;20388;-76
2022/09/24 13:09:37;;;;;;;34.70;20.65;;;15.90;99.90;;;;;;4984738;28;20050;-77
2022/09/24 13:12:13;;;;;;;17.50;8.73;;;15.90;99.90;;;;;;4988654;28;20042;-77
2022/09/24 13:14:45;;;;;;;6.90;2.00;;;15.90;99.90;;;;;;4978548;28;20038;-76
2022/09/24 13:17:13;;;;;;;6.80;5.13;;;16.00;99.90;;;;;;5002430;28;20105;-77